Time;durP1;ratioP1;P1;durP2;ratioP2;P2;SDS_P1;SDS_P2;PMS_P1;PMS_P2;Temp;Humidity;BMP_temperature;BMP_pressure;BME280_temperature;BME280_humidity;BME280_pressure;Samples;Min_cycle;Max_cycle;Signal;HPM_P1;HPM_P2
2022/11/14 06:04:20;;;;;;;47.00;19.10;;;1.90;99.90;;;;;;5186262;27;24424;-72
2022/11/14 06:07:05;;;;;;;39.17;17.90;;;1.90;99.90;;;;;;5181572;27;20106;-72
2022/11/14 06:09:49;;;;;;;34.03;16.48;;;2.00;99.90;;;;;;5181181;27;20037;-71
2022/11/14 06:12:33;;;;;;;32.70;16.88;;;2.20;99.90;;;;;;5171608;27;20098;-73
2022/11/14 06:15:18;;;;;;;28.17;17.00;;;2.30;99.90;;;;;;5160680;27;20087;-75
2022/11/14 06:18:03;;;;;;;30.90;15.05;;;2.40;99.90;;;;;;5160492;27;20042;-73
2022/11/14 06:20:47;;;;;;;29.50;14.55;;;2.40;99.90;;;;;;5164579;27;20025;-73
2022/11/14 06:23:31;;;;;;;23.30;13.63;;;2.30;99.90;;;;;;5181768;27;20135;-72
2022/11/14 06:26:24;;;;;;;21.83;13.45;;;2.30;99.90;;;;;;5181221;27;20259;-72
2022/11/14 06:29:09;;;;;;;21.50;13.27;;;2.30;99.90;;;;;;5160504;27;20057;-73
2022/11/14 06:31:53;;;;;;;22.27;13.82;;;2.30;99.90;;;;;;5171782;27;20033;-72
2022/11/14 06:34:37;;;;;;;20.80;13.02;;;2.50;99.90;;;;;;5151677;27;20033;-73
2022/11/14 06:37:21;;;;;;;20.15;12.77;;;2.60;99.90;;;;;;5160309;27;20033;-74
2022/11/14 06:40:06;;;;;;;20.85;13.13;;;2.70;99.90;;;;;;5176900;27;20120;-72
2022/11/14 06:42:54;;;;;;;25.20;13.57;;;2.80;99.90;;;;;;5181485;27;20025;-71
2022/11/14 06:45:38;;;;;;;22.95;12.80;;;2.90;99.90;;;;;;5181354;27;20072;-72
2022/11/14 06:48:22;;;;;;;24.40;12.52;;;3.00;99.90;;;;;;5150289;27;20106;-71
2022/11/14 06:51:07;;;;;;;26.83;12.93;;;3.10;99.90;;;;;;5163342;27;20042;-71
2022/11/14 06:53:51;;;;;;;29.10;13.63;;;3.30;99.90;;;;;;5164688;27;20125;-72
2022/11/14 06:56:35;;;;;;;23.45;12.07;;;3.40;99.90;;;;;;5160162;27;20261;-72
2022/11/14 06:59:19;;;;;;;21.95;11.30;;;3.40;99.90;;;;;;5168102;27;20037;-72
2022/11/14 07:02:03;;;;;;;19.67;11.15;;;3.50;99.90;;;;;;5180170;27;20141;-71
2022/11/14 07:04:47;;;;;;;19.05;10.88;;;3.40;99.90;;;;;;5181009;27;20089;-71
2022/11/14 07:07:31;;;;;;;20.65;11.55;;;3.40;99.90;;;;;;5175385;27;20280;-73
2022/11/14 07:10:15;;;;;;;18.95;11.40;;;3.30;99.90;;;;;;5168122;27;20118;-73
2022/11/14 07:13:00;;;;;;;19.95;11.02;;;3.40;99.90;;;;;;5164907;27;20034;-71
2022/11/14 07:15:51;;;;;;;19.63;11.30;;;3.40;99.90;;;;;;5152625;27;20038;-72
2022/11/14 07:18:35;;;;;;;17.05;10.63;;;3.50;99.90;;;;;;5145104;27;20084;-70
2022/11/14 07:21:20;;;;;;;17.90;10.68;;;3.60;99.90;;;;;;5164898;27;20057;-74
2022/11/14 07:24:04;;;;;;;18.00;10.57;;;3.70;99.90;;;;;;5164787;27;20707;-71
2022/11/14 07:26:48;;;;;;;17.17;9.75;;;3.80;99.90;;;;;;5165315;27;20262;-72
2022/11/14 07:29:32;;;;;;;15.68;9.80;;;3.90;99.90;;;;;;5124037;28;20030;-72
2022/11/14 07:32:17;;;;;;;14.70;9.48;;;3.90;99.90;;;;;;5124681;28;20220;-71
2022/11/14 07:35:01;;;;;;;15.13;9.73;;;4.10;99.90;;;;;;5123898;28;20038;-71
2022/11/14 07:37:45;;;;;;;14.43;9.20;;;4.00;99.90;;;;;;5123842;28;20034;-72
2022/11/14 07:40:29;;;;;;;15.18;9.23;;;4.10;99.90;;;;;;5123854;28;20061;-72
2022/11/14 07:43:13;;;;;;;14.38;9.55;;;4.10;99.90;;;;;;5123384;28;20275;-72
2022/11/14 07:46:13;;;;;;;15.90;9.00;;;4.00;99.90;;;;;;5154918;27;20034;-72
2022/11/14 07:48:57;;;;;;;14.65;9.38;;;4.00;99.90;;;;;;5164995;27;20030;-72
2022/11/14 07:51:41;;;;;;;15.40;9.80;;;4.10;99.90;;;;;;5164968;27;20097;-71
2022/11/14 07:54:25;;;;;;;17.95;10.05;;;4.30;99.90;;;;;;5164530;27;20089;-70
2022/11/14 07:57:09;;;;;;;17.35;10.27;;;4.40;99.90;;;;;;5159406;27;20373;-72
2022/11/14 07:59:53;;;;;;;14.93;9.27;;;4.60;99.90;;;;;;5123498;28;20065;-72
2022/11/14 08:02:37;;;;;;;16.25;9.35;;;4.70;99.90;;;;;;5123128;28;20058;-73
2022/11/14 08:05:22;;;;;;;17.80;8.90;;;4.90;99.90;;;;;;5123101;28;20137;-72
2022/11/14 08:08:06;;;;;;;16.88;9.05;;;4.90;99.90;;;;;;5122644;28;20382;-73
2022/11/14 08:10:50;;;;;;;17.95;9.23;;;5.00;99.90;;;;;;5138716;27;20026;-72
2022/11/14 08:13:34;;;;;;;15.57;8.60;;;5.30;99.90;;;;;;5143861;27;20038;-73
2022/11/14 08:16:18;;;;;;;13.88;8.55;;;5.30;99.90;;;;;;5143113;27;20029;-72
2022/11/14 08:19:02;;;;;;;15.20;8.77;;;5.30;99.90;;;;;;5149894;27;20052;-73
2022/11/14 08:21:47;;;;;;;16.27;9.77;;;5.30;99.90;;;;;;5164110;27;20085;-72
2022/11/14 08:24:31;;;;;;;19.05;10.07;;;5.20;99.90;;;;;;5164352;27;20029;-73
2022/11/14 08:27:16;;;;;;;16.13;9.35;;;5.20;99.90;;;;;;5162788;27;20086;-72
2022/11/14 08:30:00;;;;;;;18.02;9.68;;;5.20;99.90;;;;;;5164279;27;20046;-71
2022/11/14 08:32:44;;;;;;;16.05;9.10;;;5.20;99.90;;;;;;5156765;27;20135;-76
2022/11/14 08:35:29;;;;;;;15.68;9.18;;;5.10;99.90;;;;;;5128073;27;20240;-73
2022/11/14 08:38:13;;;;;;;15.13;8.68;;;5.10;99.90;;;;;;5142802;27;20246;-73
2022/11/14 08:41:01;;;;;;;15.10;9.10;;;5.10;99.90;;;;;;5143173;27;20046;-73
2022/11/14 08:43:45;;;;;;;11.60;6.10;;;5.20;99.90;;;;;;5143015;27;20030;-73
2022/11/14 08:46:30;;;;;;;9.35;4.82;;;5.80;99.90;;;;;;5143136;27;20344;-74
2022/11/14 08:49:14;;;;;;;8.18;3.97;;;6.60;99.90;;;;;;5142617;27;20096;-74
2022/11/14 08:51:58;;;;;;;8.15;3.90;;;7.30;99.90;;;;;;5143162;27;20240;-77
2022/11/14 08:54:42;;;;;;;6.07;3.08;;;7.60;99.90;;;;;;5143128;27;20056;-74
2022/11/14 08:57:27;;;;;;;7.85;3.40;;;7.60;99.90;;;;;;5137502;27;20117;-73
2022/11/14 09:00:11;;;;;;;4.47;2.38;;;7.80;99.90;;;;;;5121982;28;20034;-74
2022/11/14 09:02:56;;;;;;;4.28;2.20;;;8.10;99.90;;;;;;5121838;28;20062;-74
2022/11/14 09:05:43;;;;;;;4.55;1.70;;;8.30;99.90;;;;;;5122251;28;20027;-74
2022/11/14 09:08:28;;;;;;;5.93;1.80;;;8.60;99.90;;;;;;5121729;28;20209;-73
2022/11/14 09:11:13;;;;;;;3.45;1.70;;;8.70;99.90;;;;;;5159138;27;20060;-75
2022/11/14 09:13:57;;;;;;;4.43;2.40;;;8.70;99.90;;;;;;5163237;27;20037;-73
2022/11/14 09:16:41;;;;;;;7.57;4.80;;;8.60;99.90;;;;;;5163687;27;20322;-74
2022/11/14 09:19:28;;;;;;;6.63;3.30;;;8.40;99.90;;;;;;5153532;27;20048;-73
2022/11/14 09:22:15;;;;;;;11.80;5.40;;;8.30;99.90;;;;;;5144229;27;20065;-72
2022/11/14 09:25:00;;;;;;;19.92;10.55;;;8.20;99.90;;;;;;5144509;27;20030;-72
2022/11/14 09:27:49;;;;;;;20.48;11.85;;;7.90;99.90;;;;;;5138320;27;20084;-71
2022/11/14 09:30:35;;;;;;;21.15;10.40;;;7.40;99.90;;;;;;5135940;27;20221;-73
2022/11/14 09:33:19;;;;;;;13.80;9.48;;;7.00;99.90;;;;;;5128696;27;20057;-73
2022/11/14 09:36:07;;;;;;;17.38;9.55;;;6.70;99.90;;;;;;5122895;28;20411;-74
2022/11/14 09:38:54;;;;;;;19.40;9.80;;;6.60;99.90;;;;;;5122415;28;20026;-73
2022/11/14 09:42:01;;;;;;;15.02;10.35;;;6.40;99.90;;;;;;5106079;28;20031;-74
2022/11/14 09:45:10;;;;;;;18.80;10.48;;;6.30;99.90;;;;;;5121368;28;20031;-74
2022/11/14 09:48:06;;;;;;;17.58;9.90;;;6.40;99.90;;;;;;5105949;28;20327;-73
2022/11/14 09:51:02;;;;;;;15.85;9.75;;;6.50;99.90;;;;;;5121181;28;20129;-72
2022/11/14 09:54:02;;;;;;;16.77;10.20;;;6.50;99.90;;;;;;5105982;28;20034;-75
2022/11/14 09:56:46;;;;;;;16.20;9.35;;;6.50;99.90;;;;;;5121292;28;20045;-75
2022/11/14 09:59:30;;;;;;;14.00;9.68;;;6.60;99.90;;;;;;5122723;28;20029;-72
2022/11/14 10:02:38;;;;;;;15.05;9.38;;;6.80;99.90;;;;;;5125496;28;20235;-74
2022/11/14 10:06:03;;;;;;;12.57;7.93;;;7.00;99.90;;;;;;5141435;28;20408;-74
2022/11/14 10:09:17;;;;;;;11.80;7.07;;;7.30;99.90;;;;;;5119039;28;20158;-73
2022/11/14 10:12:20;;;;;;;10.27;6.75;;;7.60;99.90;;;;;;5121241;28;20035;-73
2022/11/14 10:15:17;;;;;;;8.23;5.63;;;7.90;99.90;;;;;;5120570;28;20248;-74
2022/11/14 10:18:15;;;;;;;7.22;4.97;;;8.10;99.90;;;;;;5121302;28;20205;-74
2022/11/14 10:21:24;;;;;;;8.63;4.53;;;8.40;99.90;;;;;;5105913;28;20154;-76
2022/11/14 10:24:45;;;;;;;5.53;3.70;;;8.80;99.90;;;;;;5120531;28;20095;-76
2022/11/14 10:27:40;;;;;;;6.78;3.58;;;9.30;99.90;;;;;;5139422;28;20303;-73
2022/11/14 10:30:40;;;;;;;5.45;3.22;;;9.60;99.90;;;;;;5125513;28;20336;-73
2022/11/14 10:33:46;;;;;;;7.82;3.78;;;9.70;99.90;;;;;;5141146;28;20062;-75
2022/11/14 10:37:17;;;;;;;7.03;4.15;;;9.60;99.90;;;;;;5120881;28;20034;-74
2022/11/14 10:40:17;;;;;;;5.63;3.95;;;9.50;99.90;;;;;;5058567;28;20124;-73
2022/11/14 10:43:22;;;;;;;5.50;3.50;;;9.50;99.90;;;;;;5058709;28;20040;-74
2022/11/14 10:46:37;;;;;;;6.35;3.80;;;9.70;99.90;;;;;;5057808;28;20032;-75
2022/11/14 10:49:25;;;;;;;5.90;3.42;;;9.90;99.90;;;;;;5053149;28;20052;-72
2022/11/14 10:52:16;;;;;;;6.00;3.95;;;9.90;99.90;;;;;;5061493;28;20067;-75
2022/11/14 10:55:12;;;;;;;6.10;4.00;;;9.90;99.90;;;;;;5072417;28;20114;-73
2022/11/14 10:57:56;;;;;;;7.70;4.50;;;10.10;99.90;;;;;;5081799;28;20051;-74
2022/11/14 11:00:41;;;;;;;7.50;4.20;;;10.20;99.90;;;;;;5081922;28;20135;-72
2022/11/14 11:03:42;;;;;;;6.50;3.45;;;10.20;99.90;;;;;;5045611;28;20075;-70
2022/11/14 11:06:30;;;;;;;5.95;3.50;;;10.10;99.90;;;;;;5041298;28;20075;-73
2022/11/14 11:12:35;;;;;;;5.80;3.67;;;10.40;99.90;;;;;;5084834;28;20372;-72
2022/11/14 11:15:19;;;;;;;5.82;2.60;;;10.60;99.90;;;;;;5082941;28;20062;-72
2022/11/14 11:18:20;;;;;;;4.82;2.97;;;11.10;99.90;;;;;;5094077;28;20035;-70
2022/11/14 11:21:07;;;;;;;4.35;2.78;;;11.60;99.90;;;;;;5082827;28;20071;-71
2022/11/14 11:23:53;;;;;;;4.70;2.13;;;11.60;99.90;;;;;;5083528;28;20081;-72
2022/11/14 11:26:38;;;;;;;5.50;2.70;;;11.80;99.90;;;;;;5083953;28;20063;-70
2022/11/14 11:29:22;;;;;;;5.45;2.28;;;12.40;99.90;;;;;;5092817;28;20038;-73
2022/11/14 11:32:07;;;;;;;4.68;2.63;;;12.70;99.90;;;;;;5103289;28;20039;-72
2022/11/14 11:34:52;;;;;;;3.67;2.22;;;12.70;99.90;;;;;;5101383;28;20093;-72
2022/11/14 11:37:43;;;;;;;3.67;2.53;;;12.50;99.90;;;;;;5103592;28;20396;-71
2022/11/14 11:40:29;;;;;;;3.58;2.10;;;12.30;99.90;;;;;;5103079;28;20035;-72
2022/11/14 11:43:37;;;;;;;4.53;2.55;;;12.10;99.90;;;;;;5102689;28;20035;-70
2022/11/14 11:46:49;;;;;;;4.10;2.40;;;12.00;99.90;;;;;;5103113;28;20031;-71
2022/11/14 11:49:43;;;;;;;4.13;2.20;;;11.90;99.90;;;;;;5103521;28;20122;-70
2022/11/14 11:52:54;;;;;;;5.00;2.60;;;11.90;99.90;;;;;;5102948;28;20351;-71
2022/11/14 11:56:25;;;;;;;4.55;2.33;;;11.80;99.90;;;;;;5103087;28;20038;-71
2022/11/14 11:59:28;;;;;;;2.85;1.80;;;11.70;99.90;;;;;;5102049;28;20058;-73
2022/11/14 12:02:23;;;;;;;4.15;1.38;;;11.60;99.90;;;;;;5112495;27;20045;-71
2022/11/14 12:05:27;;;;;;;3.28;1.70;;;11.60;99.90;;;;;;5143412;27;20385;-71
2022/11/14 12:08:42;;;;;;;3.08;1.65;;;11.60;99.90;;;;;;5143484;27;20072;-71
2022/11/14 12:11:33;;;;;;;4.30;1.85;;;11.50;99.90;;;;;;5122675;28;20043;-71
2022/11/14 12:14:57;;;;;;;3.35;1.30;;;11.50;99.90;;;;;;5122636;28;20038;-70
2022/11/14 12:18:06;;;;;;;3.13;1.50;;;11.60;99.90;;;;;;5123239;28;20038;-72
2022/11/14 12:21:02;;;;;;;2.88;1.38;;;11.80;99.90;;;;;;5123254;28;20065;-71
2022/11/14 12:23:55;;;;;;;3.05;1.38;;;11.90;99.90;;;;;;5122978;28;20035;-73
2022/11/14 12:26:56;;;;;;;2.05;1.15;;;12.10;99.90;;;;;;5122981;28;20424;-71
2022/11/14 12:29:47;;;;;;;3.00;1.30;;;12.40;99.90;;;;;;5154192;27;20083;-71
2022/11/14 12:32:39;;;;;;;3.30;1.27;;;12.60;99.90;;;;;;5145247;27;20146;-73
2022/11/14 12:35:25;;;;;;;3.00;1.33;;;12.80;99.90;;;;;;5131742;27;20043;-71
2022/11/14 12:38:14;;;;;;;2.75;1.13;;;13.30;99.90;;;;;;5122076;28;20167;-73
2022/11/14 12:41:00;;;;;;;1.95;1.00;;;15.30;99.90;;;;;;5122554;28;20034;-74
2022/11/14 12:43:46;;;;;;;2.10;0.88;;;16.70;99.90;;;;;;5122490;28;20066;-72
2022/11/14 12:47:05;;;;;;;2.35;1.10;;;17.50;99.90;;;;;;5148195;27;20080;-74
2022/11/14 12:49:52;;;;;;;4.60;1.23;;;18.00;99.90;;;;;;5142838;27;20026;-71
2022/11/14 12:52:39;;;;;;;3.00;1.02;;;18.20;99.70;;;;;;5142814;27;20350;-73
2022/11/14 12:55:23;;;;;;;2.25;1.02;;;18.40;99.20;;;;;;5142488;27;20268;-73
2022/11/14 12:58:29;;;;;;;2.83;1.10;;;18.70;98.70;;;;;;5142432;27;20106;-72
2022/11/14 13:01:13;;;;;;;2.85;1.00;;;18.60;98.30;;;;;;5093064;28;20092;-73
2022/11/14 13:04:22;;;;;;;2.00;0.93;;;18.60;97.60;;;;;;5139268;27;20165;-73
2022/11/14 13:07:40;;;;;;;2.22;0.95;;;18.60;97.50;;;;;;5142143;27;20029;-73
2022/11/14 13:10:38;;;;;;;3.97;1.23;;;18.70;96.90;;;;;;5153879;27;20065;-73
2022/11/14 13:22:44;;;;;;;2.60;1.13;;;19.00;95.90;;;;;;5162963;27;20126;-71
2022/11/14 13:25:29;;;;;;;2.40;1.17;;;18.70;96.30;;;;;;5162914;27;20064;-72
2022/11/14 13:28:43;;;;;;;3.97;1.20;;;18.10;96.90;;;;;;5161488;27;20050;-71
2022/11/14 13:31:44;;;;;;;2.22;1.00;;;17.40;97.80;;;;;;5141631;27;20044;-72
2022/11/14 13:34:32;;;;;;;2.65;1.35;;;17.00;98.60;;;;;;5135917;27;20057;-73
2022/11/14 13:37:43;;;;;;;2.53;1.10;;;16.70;99.10;;;;;;5141510;27;20045;-73
2022/11/14 13:40:52;;;;;;;2.92;1.10;;;16.90;99.00;;;;;;5141765;27;20030;-74
2022/11/14 13:44:03;;;;;;;2.80;1.15;;;16.70;99.40;;;;;;5142167;27;20456;-72
2022/11/14 13:47:12;;;;;;;2.95;1.27;;;16.70;99.40;;;;;;5126735;27;20057;-74
2022/11/14 13:50:07;;;;;;;3.10;1.15;;;17.10;98.60;;;;;;5137275;27;20038;-72
2022/11/14 13:52:52;;;;;;;2.83;1.35;;;17.80;98.00;;;;;;5141573;27;20110;-74
2022/11/14 13:55:36;;;;;;;3.30;1.45;;;18.00;97.20;;;;;;5141986;27;20071;-73
2022/11/14 13:59:00;;;;;;;3.67;1.85;;;18.00;97.50;;;;;;5141247;27;20080;-73
2022/11/14 14:02:19;;;;;;;2.97;1.30;;;18.20;96.90;;;;;;5141481;27;20034;-73
2022/11/14 14:05:19;;;;;;;3.72;1.70;;;17.90;96.90;;;;;;5132311;28;20328;-74
2022/11/14 14:08:18;;;;;;;2.65;1.25;;;17.70;97.50;;;;;;5122037;28;20205;-73
2022/11/14 14:11:34;;;;;;;2.10;1.00;;;17.80;97.40;;;;;;5156054;27;20038;-73
2022/11/14 14:14:38;;;;;;;3.47;1.25;;;18.00;97.20;;;;;;5162193;27;20228;-73
2022/11/14 14:17:52;;;;;;;6.97;2.08;;;17.60;97.60;;;;;;5161857;27;20037;-72
2022/11/14 14:20:49;;;;;;;4.55;1.40;;;16.90;98.40;;;;;;5136690;27;20027;-72
2022/11/14 14:23:42;;;;;;;5.47;1.40;;;16.40;98.80;;;;;;5141950;27;20159;-74
2022/11/14 14:26:46;;;;;;;2.97;1.40;;;16.00;99.70;;;;;;5145576;27;20030;-73
2022/11/14 14:29:54;;;;;;;3.70;1.42;;;15.60;99.90;;;;;;5145925;27;20095;-72
2022/11/14 14:32:38;;;;;;;2.88;1.20;;;15.30;99.90;;;;;;5146181;27;20363;-71
2022/11/14 14:35:23;;;;;;;2.55;1.33;;;15.20;99.90;;;;;;5144270;27;20042;-72
2022/11/14 14:38:20;;;;;;;2.75;1.35;;;15.00;99.90;;;;;;5143160;27;20344;-72
2022/11/14 14:41:05;;;;;;;3.17;1.42;;;15.00;99.90;;;;;;5144977;27;20221;-72
2022/11/14 14:43:53;;;;;;;3.63;1.65;;;15.10;99.90;;;;;;5145488;27;20069;-73
2022/11/14 14:46:37;;;;;;;5.80;1.25;;;15.50;99.90;;;;;;5145444;27;20225;-73
2022/11/14 14:49:29;;;;;;;4.55;1.50;;;15.70;99.90;;;;;;5144798;27;20204;-71
2022/11/14 14:52:30;;;;;;;3.15;1.15;;;15.60;99.90;;;;;;5139236;27;20038;-73
2022/11/14 14:55:24;;;;;;;4.30;1.65;;;15.20;99.90;;;;;;5144682;27;20030;-71
2022/11/14 14:58:29;;;;;;;3.72;1.80;;;14.80;99.90;;;;;;5144876;27;20046;-72
2022/11/14 15:01:16;;;;;;;3.40;1.60;;;14.60;99.90;;;;;;5144644;27;20066;-72
2022/11/14 15:04:11;;;;;;;5.85;1.65;;;14.30;99.90;;;;;;5144585;27;20049;-72
2022/11/14 15:06:57;;;;;;;2.72;1.60;;;14.00;99.90;;;;;;5142055;27;22128;-70
2022/11/14 15:09:51;;;;;;;2.92;1.70;;;13.80;99.90;;;;;;5135564;27;20025;-71
2022/11/14 15:12:36;;;;;;;3.50;1.58;;;13.80;99.90;;;;;;5165572;27;20131;-71
2022/11/14 15:15:21;;;;;;;4.22;1.90;;;13.70;99.90;;;;;;5165070;27;20338;-71
2022/11/14 15:18:13;;;;;;;4.38;1.90;;;13.50;99.90;;;;;;5165160;27;20038;-75
2022/11/14 15:21:13;;;;;;;3.63;1.63;;;13.50;99.90;;;;;;5124080;28;20068;-74
2022/11/14 15:24:16;;;;;;;5.20;1.88;;;13.40;99.90;;;;;;5132796;27;20370;-74
2022/11/14 15:27:04;;;;;;;4.55;1.80;;;13.30;99.90;;;;;;5144763;27;20067;-74
2022/11/14 15:29:55;;;;;;;3.95;1.80;;;13.20;99.90;;;;;;5144428;27;20172;-74
2022/11/14 15:32:48;;;;;;;3.22;1.60;;;13.10;99.90;;;;;;5144700;27;20220;-75
2022/11/14 15:35:42;;;;;;;5.07;2.03;;;13.10;99.90;;;;;;5144124;27;20065;-75
2022/11/14 15:38:26;;;;;;;5.22;2.28;;;13.00;99.90;;;;;;5139394;27;20022;-74
2022/11/14 15:41:22;;;;;;;3.95;2.33;;;12.90;99.90;;;;;;5131439;27;20034;-74
2022/11/14 15:44:29;;;;;;;6.40;2.03;;;12.80;99.90;;;;;;5143786;27;20074;-74
2022/11/14 15:47:35;;;;;;;4.13;2.05;;;12.70;99.90;;;;;;5144197;27;20026;-75
2022/11/14 15:50:30;;;;;;;4.25;2.00;;;12.60;99.90;;;;;;5143931;27;20029;-75
2022/11/14 15:53:25;;;;;;;5.47;2.00;;;12.50;99.90;;;;;;5143617;27;20037;-74
2022/11/14 15:56:13;;;;;;;4.82;1.90;;;12.40;99.90;;;;;;5133908;27;20067;-74
2022/11/14 15:58:58;;;;;;;3.55;1.60;;;12.30;99.90;;;;;;5149125;27;20026;-76
2022/11/14 16:01:44;;;;;;;3.42;1.73;;;12.20;99.90;;;;;;5156534;27;20073;-75
2022/11/14 16:04:32;;;;;;;6.82;2.00;;;12.10;99.90;;;;;;5164067;27;20040;-75
2022/11/14 16:07:17;;;;;;;5.00;2.25;;;11.90;99.90;;;;;;5122911;28;20026;-75
2022/11/14 16:10:02;;;;;;;6.50;2.10;;;11.90;99.90;;;;;;5128122;27;20062;-74
2022/11/14 16:12:46;;;;;;;6.72;2.00;;;11.90;99.90;;;;;;5143784;27;20061;-75
2022/11/14 16:15:30;;;;;;;3.40;2.00;;;11.90;99.90;;;;;;5107687;28;20073;-75
2022/11/14 16:18:15;;;;;;;4.90;2.25;;;11.80;99.90;;;;;;5133461;27;20031;-74
2022/11/14 16:21:00;;;;;;;3.75;2.20;;;11.90;99.90;;;;;;5143731;27;20091;-73
2022/11/14 16:23:44;;;;;;;4.28;2.50;;;11.80;99.90;;;;;;5143518;27;20228;-73
2022/11/14 16:26:30;;;;;;;3.92;2.30;;;11.80;99.90;;;;;;5138118;27;20030;-74
2022/11/14 16:29:15;;;;;;;6.63;2.67;;;11.70;99.90;;;;;;5142057;27;20141;-75
2022/11/14 16:31:59;;;;;;;4.90;2.22;;;11.60;99.90;;;;;;5152527;27;20444;-75
2022/11/14 16:34:44;;;;;;;4.78;2.55;;;11.50;99.90;;;;;;5140533;27;20042;-75
2022/11/14 16:37:29;;;;;;;4.38;2.53;;;11.40;99.90;;;;;;5128720;27;20035;-73
2022/11/14 16:40:20;;;;;;;5.55;2.30;;;11.40;99.90;;;;;;5123249;27;20092;-74
2022/11/14 16:43:04;;;;;;;4.65;2.22;;;11.30;99.90;;;;;;5126109;27;20039;-72
2022/11/14 16:45:49;;;;;;;4.95;2.42;;;11.20;99.90;;;;;;5130706;27;20057;-75
2022/11/14 16:48:33;;;;;;;5.35;2.72;;;11.10;99.90;;;;;;5124162;28;20072;-72
2022/11/14 16:51:17;;;;;;;5.32;2.28;;;11.10;99.90;;;;;;5121169;28;20042;-73
2022/11/14 16:54:02;;;;;;;5.38;2.55;;;11.10;99.90;;;;;;5131587;27;20075;-74
2022/11/14 16:56:47;;;;;;;4.95;2.50;;;10.90;99.90;;;;;;5140065;27;20034;-73
2022/11/14 16:59:31;;;;;;;5.32;2.88;;;10.90;99.90;;;;;;5120763;28;20042;-71
2022/11/14 17:02:17;;;;;;;4.70;2.40;;;10.80;99.90;;;;;;5128238;27;20339;-71
2022/11/14 17:05:01;;;;;;;11.40;4.65;;;10.90;99.90;;;;;;5150373;27;20045;-73
2022/11/14 17:07:45;;;;;;;5.35;2.97;;;10.80;99.90;;;;;;5163611;27;20083;-74
2022/11/14 17:10:30;;;;;;;5.07;2.70;;;10.80;99.90;;;;;;5149955;27;20101;-72
2022/11/14 17:13:16;;;;;;;6.47;2.47;;;10.60;99.90;;;;;;5136428;27;20045;-72
2022/11/14 17:16:01;;;;;;;6.35;3.25;;;10.60;99.90;;;;;;5142529;27;20053;-73
2022/11/14 17:18:51;;;;;;;7.80;3.25;;;10.60;99.90;;;;;;5142632;27;20417;-72
2022/11/14 17:21:35;;;;;;;7.10;3.67;;;10.60;99.90;;;;;;5142475;27;20162;-72
2022/11/14 17:24:20;;;;;;;6.03;3.08;;;10.40;99.90;;;;;;5142107;27;20033;-74
2022/11/14 17:27:04;;;;;;;5.10;2.67;;;10.30;99.90;;;;;;5142329;27;20068;-72
2022/11/14 17:29:50;;;;;;;4.82;2.80;;;10.20;99.90;;;;;;5126976;27;20030;-73
2022/11/14 17:32:34;;;;;;;6.20;3.30;;;10.10;99.90;;;;;;5122007;28;20057;-73
2022/11/14 17:35:19;;;;;;;6.90;4.13;;;10.10;99.90;;;;;;5121157;28;20038;-73
2022/11/14 17:38:03;;;;;;;5.20;2.92;;;10.00;99.90;;;;;;5121652;28;20034;-73
2022/11/14 17:40:48;;;;;;;6.72;3.70;;;10.00;99.90;;;;;;5121663;28;20072;-74
2022/11/14 17:43:33;;;;;;;5.03;3.15;;;10.10;99.90;;;;;;5121998;27;20351;-72
2022/11/14 17:46:19;;;;;;;6.55;2.78;;;10.10;99.90;;;;;;5141419;27;20027;-72
2022/11/14 17:49:03;;;;;;;5.00;2.75;;;10.20;99.90;;;;;;5142211;27;20400;-72
2022/11/14 17:51:48;;;;;;;8.68;3.28;;;10.30;99.90;;;;;;5142197;27;20050;-73
2022/11/14 17:54:36;;;;;;;9.70;3.25;;;10.30;99.90;;;;;;5109277;28;20087;-76
2022/11/14 17:57:20;;;;;;;5.97;3.50;;;10.40;99.90;;;;;;5121248;28;20099;-75
2022/11/14 18:00:06;;;;;;;5.85;3.50;;;10.40;99.90;;;;;;5125735;27;20255;-72
2022/11/14 18:02:51;;;;;;;6.15;3.20;;;10.50;99.90;;;;;;5141536;27;20053;-71
2022/11/14 18:05:35;;;;;;;5.53;3.38;;;10.40;99.90;;;;;;5153222;27;20350;-71
2022/11/14 18:08:19;;;;;;;6.55;3.17;;;10.50;99.90;;;;;;5162131;27;20060;-75
2022/11/14 18:11:06;;;;;;;9.18;3.70;;;10.50;99.90;;;;;;5144870;27;20064;-73
2022/11/14 18:13:54;;;;;;;6.22;3.70;;;10.50;99.90;;;;;;5141936;28;20034;-73
2022/11/14 18:16:38;;;;;;;6.18;3.70;;;10.60;99.90;;;;;;5135913;28;20243;-74
2022/11/14 18:19:22;;;;;;;8.52;3.47;;;10.60;99.90;;;;;;5141327;28;20050;-72
2022/11/14 18:22:07;;;;;;;7.80;3.55;;;10.70;99.90;;;;;;5141671;28;20034;-72
2022/11/14 18:24:51;;;;;;;7.05;3.60;;;10.70;99.90;;;;;;5141924;28;20068;-72
2022/11/14 18:27:36;;;;;;;7.25;3.88;;;10.80;99.90;;;;;;5141675;28;20083;-73
2022/11/14 18:30:20;;;;;;;9.48;4.13;;;10.80;99.90;;;;;;5140298;28;20084;-73
2022/11/14 18:33:07;;;;;;;7.30;3.58;;;10.80;99.90;;;;;;5140427;28;20064;-74
2022/11/14 18:35:59;;;;;;;7.18;3.72;;;10.80;99.90;;;;;;5141689;28;20084;-73
2022/11/14 18:38:44;;;;;;;8.63;4.05;;;10.80;99.90;;;;;;5141396;28;20038;-74
2022/11/14 18:41:29;;;;;;;6.72;3.85;;;10.90;99.90;;;;;;5141187;28;20167;-73
2022/11/14 18:44:13;;;;;;;8.38;5.18;;;10.80;99.90;;;;;;5140775;28;20038;-76
2022/11/14 18:46:57;;;;;;;8.52;4.55;;;10.90;99.90;;;;;;5136401;28;20064;-75
2022/11/14 18:49:42;;;;;;;8.35;4.47;;;10.80;99.90;;;;;;5141665;28;20276;-74
2022/11/14 18:52:26;;;;;;;10.05;4.25;;;10.90;99.90;;;;;;5140954;28;20131;-73
2022/11/14 18:55:10;;;;;;;7.18;3.95;;;10.90;99.90;;;;;;5121050;28;20209;-74
2022/11/14 18:57:55;;;;;;;6.53;4.15;;;10.90;99.90;;;;;;5120943;28;20030;-75
2022/11/14 19:00:39;;;;;;;8.30;4.70;;;10.90;99.90;;;;;;5120688;28;20080;-75
2022/11/14 19:03:24;;;;;;;7.47;4.30;;;10.80;99.90;;;;;;5131591;28;20084;-72
2022/11/14 19:06:12;;;;;;;8.77;4.57;;;10.80;99.90;;;;;;5142273;27;20071;-72
2022/11/14 19:08:57;;;;;;;6.90;4.57;;;10.70;99.90;;;;;;5161912;27;20095;-74
2022/11/14 19:14:45;;;;;;;8.65;4.30;;;10.60;99.90;;;;;;5124429;28;20213;-73
2022/11/14 19:17:29;;;;;;;8.27;4.72;;;10.50;99.90;;;;;;5124082;28;20027;-75
2022/11/14 19:20:17;;;;;;;12.65;4.28;;;10.40;99.90;;;;;;5143984;27;20353;-73
2022/11/14 19:23:02;;;;;;;8.55;4.53;;;10.30;99.90;;;;;;5144703;27;20262;-74
2022/11/14 19:25:46;;;;;;;8.75;4.53;;;10.20;99.90;;;;;;5144739;27;20038;-72
2022/11/14 19:28:30;;;;;;;11.32;5.40;;;10.10;99.90;;;;;;5128911;27;20124;-74
2022/11/14 19:31:15;;;;;;;9.38;5.03;;;10.20;99.90;;;;;;5144203;27;20331;-73
2022/11/14 19:33:59;;;;;;;12.32;5.55;;;10.10;99.90;;;;;;5138993;27;20103;-74
2022/11/14 19:36:43;;;;;;;12.40;5.22;;;10.10;99.90;;;;;;5144478;27;20118;-74
2022/11/14 19:39:27;;;;;;;8.88;5.18;;;10.00;99.90;;;;;;5144357;27;20072;-75
2022/11/14 19:42:12;;;;;;;16.73;8.27;;;9.90;99.90;;;;;;5129309;27;20075;-74
2022/11/14 19:44:56;;;;;;;11.82;6.60;;;9.90;99.90;;;;;;5144341;27;20026;-74
2022/11/14 19:47:40;;;;;;;13.02;6.60;;;9.80;99.90;;;;;;5144528;27;20091;-73
2022/11/14 19:50:24;;;;;;;10.98;5.45;;;9.80;99.90;;;;;;5137898;27;20079;-72
2022/11/14 19:53:09;;;;;;;11.15;5.25;;;9.70;99.90;;;;;;5144283;27;20164;-73
2022/11/14 19:55:59;;;;;;;7.80;5.00;;;9.70;99.90;;;;;;5144380;27;20031;-73
2022/11/14 19:58:45;;;;;;;7.28;4.72;;;9.70;99.90;;;;;;5144069;27;20026;-75
2022/11/14 20:01:30;;;;;;;9.18;5.00;;;9.70;99.90;;;;;;5144472;27;20033;-73
2022/11/14 20:04:14;;;;;;;9.93;5.15;;;9.70;99.90;;;;;;5102149;28;20085;-74
2022/11/14 20:06:58;;;;;;;7.60;5.18;;;9.60;99.90;;;;;;5100242;28;20039;-74
2022/11/14 20:09:42;;;;;;;9.25;5.20;;;9.50;99.90;;;;;;5103034;28;20023;-73
2022/11/14 20:12:27;;;;;;;8.65;5.53;;;9.50;99.90;;;;;;5102322;28;20088;-73
2022/11/14 20:15:11;;;;;;;7.60;4.78;;;9.40;99.90;;;;;;5102927;28;20039;-73
2022/11/14 20:17:56;;;;;;;10.75;4.93;;;9.40;99.90;;;;;;5102828;28;20321;-72
2022/11/14 20:20:41;;;;;;;10.27;5.38;;;9.40;99.90;;;;;;5096753;28;20342;-73
2022/11/14 20:23:26;;;;;;;7.97;5.00;;;9.40;99.90;;;;;;5080954;28;20038;-73
2022/11/14 20:26:11;;;;;;;13.57;5.10;;;9.40;99.90;;;;;;5082387;28;20222;-73
2022/11/14 20:28:55;;;;;;;9.20;5.00;;;9.40;99.90;;;;;;5082448;28;20093;-74
2022/11/14 20:31:39;;;;;;;7.78;4.38;;;9.50;99.90;;;;;;5086806;28;20091;-74
2022/11/14 20:34:24;;;;;;;11.05;5.38;;;9.50;99.90;;;;;;5085353;28;20047;-73
2022/11/14 20:37:08;;;;;;;7.95;4.95;;;9.70;99.90;;;;;;5097441;28;20361;-73
2022/11/14 20:39:53;;;;;;;7.78;4.95;;;9.70;99.90;;;;;;5115849;28;20027;-73
2022/11/14 20:42:45;;;;;;;9.60;4.80;;;9.80;99.90;;;;;;5080673;28;20353;-73
2022/11/14 20:45:29;;;;;;;10.25;4.70;;;9.90;99.90;;;;;;5102403;28;20058;-72
2022/11/14 20:48:14;;;;;;;6.32;4.35;;;9.80;99.90;;;;;;5122690;28;20030;-74
2022/11/14 20:51:02;;;;;;;8.55;4.70;;;10.00;99.90;;;;;;5106218;28;20031;-74
2022/11/14 20:53:52;;;;;;;8.98;4.45;;;10.10;99.90;;;;;;5101650;28;20035;-74
2022/11/14 20:56:36;;;;;;;8.38;4.70;;;10.20;99.90;;;;;;5101701;28;20358;-72
2022/11/14 20:59:21;;;;;;;7.47;4.75;;;10.30;99.90;;;;;;5101859;28;20067;-73
2022/11/14 21:02:05;;;;;;;9.45;4.60;;;10.30;99.90;;;;;;5109505;27;20103;-72